Time;durP1;ratioP1;P1;durP2;ratioP2;P2;SDS_P1;SDS_P2;PMS_P1;PMS_P2;Temp;Humidity;BMP_temperature;BMP_pressure;BME280_temperature;BME280_humidity;BME280_pressure;Samples;Min_cycle;Max_cycle;Signal;HPM_P1;HPM_P2
2023/10/11 00:01:47;;;;;;;8.65;3.72;;;20.50;76.30;;;;;;6309262;22;20100;-76
2023/10/11 00:04:23;;;;;;;7.85;3.63;;;20.50;76.30;;;;;;6282242;22;20324;-76
2023/10/11 00:06:50;;;;;;;9.95;4.32;;;20.50;76.30;;;;;;6282921;22;20019;-77
2023/10/11 00:09:16;;;;;;;7.60;3.85;;;20.50;76.20;;;;;;6281492;22;20023;-76
2023/10/11 00:11:42;;;;;;;7.28;3.45;;;20.50;76.20;;;;;;6310180;22;20065;-76
2023/10/11 00:14:08;;;;;;;9.35;3.85;;;20.50;76.10;;;;;;6282598;22;20023;-76
2023/10/11 00:16:35;;;;;;;8.05;3.20;;;20.50;76.10;;;;;;6281901;22;20015;-76
2023/10/11 00:19:01;;;;;;;6.97;3.78;;;20.50;76.10;;;;;;6310651;22;20019;-76
2023/10/11 00:21:40;;;;;;;7.40;3.80;;;20.50;76.10;;;;;;6282639;22;20015;-76
2023/10/11 00:24:07;;;;;;;6.95;3.78;;;20.50;76.10;;;;;;6309501;22;20024;-76
2023/10/11 00:26:40;;;;;;;7.65;4.10;;;20.50;76.10;;;;;;6282659;22;20015;-76
2023/10/11 00:29:05;;;;;;;6.45;3.45;;;20.50;76.10;;;;;;6310057;22;20011;-76
2023/10/11 00:31:34;;;;;;;7.78;3.20;;;20.50;76.00;;;;;;6307075;22;20392;-77
2023/10/11 00:34:00;;;;;;;6.53;3.88;;;20.50;76.00;;;;;;6281032;22;20015;-77
2023/10/11 00:36:31;;;;;;;8.32;3.75;;;20.40;75.90;;;;;;6308431;22;20023;-77
2023/10/11 00:38:57;;;;;;;8.65;3.97;;;20.40;75.90;;;;;;6280124;22;20091;-77
2023/10/11 00:41:25;;;;;;;6.50;3.55;;;20.50;75.90;;;;;;6280640;22;20055;-77
2023/10/11 00:43:55;;;;;;;6.60;3.33;;;20.50;75.90;;;;;;6279929;22;20324;-76
2023/10/11 00:49:39;;;;;;;8.18;4.10;;;20.50;75.80;;;;;;6188316;23;20397;-76
2023/10/11 00:52:06;;;;;;;8.43;4.18;;;20.40;75.80;;;;;;6291917;22;20019;-76
2023/10/11 00:54:34;;;;;;;8.43;3.55;;;20.50;75.80;;;;;;6255411;22;20065;-76
2023/10/11 00:57:00;;;;;;;6.05;3.60;;;20.40;75.80;;;;;;6255304;22;20019;-76
2023/10/11 00:59:28;;;;;;;8.57;3.63;;;20.40;75.80;;;;;;6306779;22;20038;-77
2023/10/11 01:01:55;;;;;;;9.93;3.83;;;20.40;75.70;;;;;;6308013;22;20007;-76
2023/10/11 01:04:21;;;;;;;7.78;4.00;;;20.40;75.80;;;;;;6280307;22;20015;-76
2023/10/11 01:06:50;;;;;;;7.78;3.85;;;20.40;75.70;;;;;;6279955;22;20015;-77
2023/10/11 01:09:26;;;;;;;;;;;20.40;75.70;;;;;;6280723;22;20015;-76
2023/10/11 01:11:52;;;;;;;7.63;3.85;;;20.40;75.70;;;;;;6279761;22;20281;-77
2023/10/11 01:14:17;;;;;;;7.10;3.95;;;20.40;75.80;;;;;;6280335;22;20090;-77
2023/10/11 01:16:43;;;;;;;8.05;3.70;;;20.40;75.70;;;;;;6280065;22;20019;-77
2023/10/11 01:19:13;;;;;;;7.13;3.53;;;20.40;75.70;;;;;;6307182;22;20152;-77
2023/10/11 01:21:39;;;;;;;7.05;3.63;;;20.40;75.80;;;;;;6280762;22;20012;-76
2023/10/11 01:24:08;;;;;;;7.35;3.42;;;20.40;75.70;;;;;;6280427;22;20368;-75
2023/10/11 01:26:34;;;;;;;6.97;3.60;;;20.40;75.70;;;;;;6279651;22;20400;-76
2023/10/11 01:29:01;;;;;;;5.80;3.38;;;20.40;75.60;;;;;;6280074;22;20094;-76
2023/10/11 01:31:32;;;;;;;7.72;3.58;;;20.40;75.60;;;;;;6308000;22;20038;-77
2023/10/11 01:33:58;;;;;;;5.88;3.50;;;20.40;75.60;;;;;;6307152;22;20090;-77
2023/10/11 01:36:23;;;;;;;7.80;3.80;;;20.40;75.60;;;;;;6280080;22;20043;-77
2023/10/11 01:38:49;;;;;;;6.80;3.20;;;20.40;75.60;;;;;;6280586;22;20030;-77
2023/10/11 01:41:27;;;;;;;8.00;4.00;;;20.40;75.60;;;;;;6305914;22;20090;-77
2023/10/11 01:43:53;;;;;;;7.03;3.83;;;20.40;75.60;;;;;;6307844;22;20019;-77
2023/10/11 01:46:35;;;;;;;7.28;3.78;;;20.40;75.60;;;;;;6279799;22;20018;-77
2023/10/11 01:49:01;;;;;;;6.32;3.50;;;20.40;75.60;;;;;;6279368;22;20019;-77
2023/10/11 01:51:27;;;;;;;8.65;3.70;;;20.40;75.60;;;;;;6307554;22;20466;-77
2023/10/11 01:54:09;;;;;;;9.43;3.72;;;20.40;75.60;;;;;;6280140;22;20015;-76
2023/10/11 01:56:35;;;;;;;6.88;3.95;;;20.40;75.60;;;;;;6280291;22;20015;-77
2023/10/11 01:59:01;;;;;;;7.15;3.78;;;20.30;75.60;;;;;;6280146;22;20019;-77
2023/10/11 02:01:28;;;;;;;7.32;3.67;;;20.40;75.60;;;;;;6278764;22;20015;-77
2023/10/11 02:03:58;;;;;;;6.13;3.47;;;20.40;75.60;;;;;;6280017;22;20039;-77
2023/10/11 02:06:24;;;;;;;7.72;3.53;;;20.40;75.60;;;;;;6306625;22;20015;-77
2023/10/11 02:08:53;;;;;;;6.95;3.47;;;20.30;75.50;;;;;;6279203;22;20025;-77
2023/10/11 02:11:25;;;;;;;8.07;3.80;;;20.40;75.60;;;;;;6279714;22;20403;-76
2023/10/11 02:13:51;;;;;;;8.77;3.97;;;20.30;75.50;;;;;;6280023;22;20073;-77
2023/10/11 02:16:16;;;;;;;9.95;3.63;;;20.40;75.60;;;;;;6278832;22;20027;-77
2023/10/11 02:18:42;;;;;;;6.25;3.38;;;20.30;75.50;;;;;;6279763;22;20038;-77
2023/10/11 02:21:08;;;;;;;6.85;3.03;;;20.40;75.50;;;;;;6279831;22;20030;-77
2023/10/11 02:23:40;;;;;;;7.85;3.70;;;20.30;75.50;;;;;;6306842;22;20094;-76
2023/10/11 02:26:12;;;;;;;6.72;3.40;;;20.30;75.50;;;;;;6279884;22;20019;-76
2023/10/11 02:28:39;;;;;;;7.60;4.10;;;20.40;75.50;;;;;;6307582;22;20022;-76
2023/10/11 02:31:05;;;;;;;7.20;3.50;;;20.30;75.50;;;;;;6306644;22;20090;-76
2023/10/11 02:33:32;;;;;;;6.53;3.60;;;20.30;75.50;;;;;;6279603;22;20041;-76
2023/10/11 02:36:08;;;;;;;6.88;3.47;;;20.30;75.50;;;;;;6280127;22;20030;-76
2023/10/11 02:38:47;;;;;;;6.95;3.60;;;20.30;75.50;;;;;;6279543;22;20034;-76
2023/10/11 02:41:13;;;;;;;7.18;3.83;;;20.30;75.50;;;;;;6279526;22;20055;-76
2023/10/11 02:43:47;;;;;;;7.18;3.60;;;20.30;75.40;;;;;;6278754;22;20090;-76
2023/10/11 02:46:13;;;;;;;5.95;3.10;;;20.30;75.40;;;;;;6255890;22;20076;-76
2023/10/11 02:48:45;;;;;;;8.30;3.60;;;20.30;75.50;;;;;;6279699;22;20019;-76
2023/10/11 02:51:15;;;;;;;6.03;3.50;;;20.30;75.40;;;;;;6278539;22;20368;-76
2023/10/11 02:53:43;;;;;;;8.43;3.83;;;20.30;75.40;;;;;;6279873;22;20011;-75
2023/10/11 02:56:09;;;;;;;8.55;3.75;;;20.30;75.40;;;;;;6279478;22;20019;-75
2023/10/11 02:58:38;;;;;;;7.00;3.45;;;20.30;75.40;;;;;;6278609;22;20019;-76
2023/10/11 03:01:05;;;;;;;7.13;3.50;;;20.30;75.40;;;;;;6306411;22;20046;-76
2023/10/11 03:03:31;;;;;;;5.93;3.05;;;20.30;75.40;;;;;;6307037;22;20045;-76
2023/10/11 03:05:56;;;;;;;5.85;3.42;;;20.30;75.40;;;;;;6279274;22;20019;-76
2023/10/11 03:08:26;;;;;;;7.43;3.85;;;20.30;75.40;;;;;;6279686;22;20015;-75
2023/10/11 03:10:56;;;;;;;7.07;3.83;;;20.30;75.40;;;;;;6306923;22;20019;-76
2023/10/11 03:13:27;;;;;;;7.25;3.67;;;20.30;75.40;;;;;;6277768;22;20466;-75
2023/10/11 03:15:56;;;;;;;6.35;3.83;;;20.30;75.40;;;;;;6279708;22;20015;-76
2023/10/11 03:18:25;;;;;;;6.70;3.50;;;20.30;75.30;;;;;;6278461;22;20053;-77
2023/10/11 03:21:07;;;;;;;6.35;3.60;;;20.30;75.30;;;;;;6279815;22;20091;-77
2023/10/11 03:23:43;;;;;;;8.00;3.47;;;20.30;75.40;;;;;;6306898;22;20159;-76
2023/10/11 03:26:16;;;;;;;7.78;3.70;;;20.30;75.40;;;;;;6305500;22;20012;-77
2023/10/11 03:28:43;;;;;;;8.82;3.92;;;20.30;75.30;;;;;;6279553;22;20026;-76
2023/10/11 03:31:10;;;;;;;7.10;3.28;;;20.20;75.30;;;;;;6306944;22;20019;-76
2023/10/11 03:33:40;;;;;;;6.05;3.63;;;20.30;75.30;;;;;;6278838;22;20489;-76
2023/10/11 03:36:17;;;;;;;;;;;20.30;75.30;;;;;;6307249;22;20015;-76
2023/10/11 03:38:45;;;;;;;6.35;3.50;;;20.20;75.20;;;;;;6278748;22;20290;-76
2023/10/11 03:41:15;;;;;;;8.68;3.58;;;20.20;75.30;;;;;;6278232;22;20019;-76
2023/10/11 03:43:41;;;;;;;8.20;3.80;;;20.30;75.30;;;;;;6279419;22;20023;-76
2023/10/11 03:46:09;;;;;;;7.07;3.42;;;20.20;75.30;;;;;;6279588;22;20011;-76
2023/10/11 03:48:44;;;;;;;7.90;3.80;;;20.20;75.20;;;;;;6278717;22;20015;-77
2023/10/11 03:51:11;;;;;;;6.70;3.53;;;20.20;75.20;;;;;;6306690;22;20082;-77
2023/10/11 03:53:39;;;;;;;7.57;3.78;;;20.20;75.20;;;;;;6305835;22;20086;-77
2023/10/11 03:56:06;;;;;;;5.72;3.53;;;20.20;75.20;;;;;;6279602;22;20343;-77
2023/10/11 04:01:39;;;;;;;6.65;3.47;;;20.20;75.20;;;;;;6305306;22;20023;-77
2023/10/11 04:03:49;;;;;;;10.25;4.05;;;20.20;75.20;;;;;;6293541;22;20019;-77
2023/10/11 04:06:14;;;;;;;6.65;3.65;;;20.20;75.20;;;;;;6306710;22;20077;-76
2023/10/11 04:08:47;;;;;;;5.68;3.42;;;20.20;75.20;;;;;;6307999;22;20015;-78
2023/10/11 04:11:19;;;;;;;8.05;3.80;;;20.20;75.20;;;;;;6280778;22;20029;-76
2023/10/11 04:13:49;;;;;;;6.45;3.85;;;20.20;75.20;;;;;;6281222;22;20019;-76
2023/10/11 04:16:17;;;;;;;7.00;3.72;;;20.20;75.20;;;;;;6280107;22;20098;-76
2023/10/11 04:18:43;;;;;;;;;;;20.20;75.20;;;;;;6309472;22;20007;-76
2023/10/11 04:21:25;;;;;;;7.38;3.45;;;20.20;75.10;;;;;;6280829;22;19915;-77
2023/10/11 04:23:57;;;;;;;6.80;3.75;;;20.20;75.20;;;;;;6280068;22;20334;-75
2023/10/11 04:26:32;;;;;;;5.13;3.22;;;20.10;75.10;;;;;;6280748;22;20007;-76
2023/10/11 04:29:06;;;;;;;6.97;3.33;;;20.20;75.20;;;;;;6307926;22;20030;-76
2023/10/11 04:34:23;;;;;;;6.63;3.53;;;20.20;75.10;;;;;;6280829;22;20023;-76
2023/10/11 04:36:55;;;;;;;6.03;3.45;;;20.10;75.10;;;;;;6307596;22;20030;-76
2023/10/11 04:39:27;;;;;;;6.45;3.38;;;20.20;75.10;;;;;;6308468;22;20018;-76
2023/10/11 04:41:57;;;;;;;6.05;3.38;;;20.20;75.20;;;;;;6308830;22;20018;-77
2023/10/11 04:44:31;;;;;;;6.47;3.47;;;20.20;75.20;;;;;;6306680;22;20052;-76
2023/10/11 04:46:58;;;;;;;6.10;3.45;;;20.10;75.10;;;;;;6281101;22;20025;-76
2023/10/11 04:49:25;;;;;;;7.65;3.75;;;20.20;75.20;;;;;;6281152;22;20094;-76
2023/10/11 04:51:55;;;;;;;6.60;3.65;;;20.10;75.10;;;;;;6280066;22;20023;-77
2023/10/11 04:54:22;;;;;;;8.35;4.40;;;20.20;75.10;;;;;;6280634;22;20038;-77
2023/10/11 05:04:26;;;;;;;6.65;3.40;;;20.10;75.10;;;;;;6278835;22;19921;-75
2023/10/11 05:06:53;;;;;;;7.18;3.67;;;20.10;75.20;;;;;;6280912;22;20377;-75
2023/10/11 05:11:53;;;;;;;7.68;4.32;;;20.10;75.10;;;;;;6279796;22;20027;-74
2023/10/11 05:16:59;;;;;;;6.82;3.95;;;20.20;75.10;;;;;;6280535;22;20024;-75
2023/10/11 05:19:28;;;;;;;8.52;4.20;;;20.10;75.10;;;;;;6279691;22;20102;-75
2023/10/11 05:21:55;;;;;;;7.50;4.00;;;20.10;75.10;;;;;;6280399;22;20050;-74
2023/10/11 05:24:33;;;;;;;6.65;3.67;;;20.10;75.10;;;;;;6279783;22;20304;-74
2023/10/11 05:30:06;;;;;;;5.55;3.30;;;20.10;75.10;;;;;;6308315;22;20055;-74
2023/10/11 05:32:41;;;;;;;7.88;3.70;;;20.10;75.10;;;;;;6279262;22;20051;-75
2023/10/11 05:35:24;;;;;;;6.18;3.85;;;20.10;75.10;;;;;;6279912;22;20073;-75
2023/10/11 05:51:31;;;;;;;7.07;3.63;;;20.10;75.10;;;;;;6280007;22;20420;-75
2023/10/11 05:53:59;;;;;;;7.45;3.97;;;20.10;75.10;;;;;;6307002;22;20015;-73
2023/10/11 05:56:24;;;;;;;5.05;3.20;;;20.10;75.10;;;;;;6307129;22;20379;-69
2023/10/11 05:58:52;;;;;;;5.88;3.58;;;20.10;75.20;;;;;;6307506;22;20061;-69
2023/10/11 06:01:21;;;;;;;7.70;3.88;;;20.10;75.20;;;;;;6306181;22;20098;-69
2023/10/11 06:03:55;;;;;;;10.00;4.05;;;20.10;75.20;;;;;;6307688;22;20069;-69
2023/10/11 06:06:32;;;;;;;10.93;4.07;;;20.10;75.20;;;;;;6279555;22;20443;-68
2023/10/11 06:08:58;;;;;;;9.55;4.05;;;20.10;75.20;;;;;;6279543;22;20344;-69
2023/10/11 06:11:29;;;;;;;9.23;4.55;;;20.10;75.30;;;;;;6279735;22;20019;-69
2023/10/11 06:14:04;;;;;;;11.70;4.50;;;20.10;75.20;;;;;;6280245;22;20050;-68
2023/10/11 06:16:37;;;;;;;9.48;4.25;;;20.20;75.30;;;;;;6278938;22;20015;-69
2023/10/11 06:19:18;;;;;;;9.75;4.38;;;20.20;75.30;;;;;;6280278;22;20015;-69
2023/10/11 06:21:56;;;;;;;8.20;3.78;;;20.10;75.30;;;;;;6306878;22;20020;-69
2023/10/11 06:24:25;;;;;;;17.42;4.63;;;20.20;75.40;;;;;;6279560;22;20463;-70
2023/10/11 06:26:56;;;;;;;8.43;4.15;;;20.20;75.30;;;;;;6279879;22;20016;-70
2023/10/11 06:29:26;;;;;;;8.38;4.50;;;20.20;75.30;;;;;;6306303;22;20100;-70
2023/10/11 06:31:53;;;;;;;12.55;4.72;;;20.20;75.40;;;;;;6280071;22;20047;-70
2023/10/11 06:36:51;;;;;;;7.85;4.20;;;20.20;75.50;;;;;;6278894;22;20023;-71
2023/10/11 06:39:34;;;;;;;9.90;4.25;;;20.20;75.50;;;;;;6305799;22;20019;-73
2023/10/11 06:42:13;;;;;;;12.57;4.47;;;20.20;75.60;;;;;;6307352;22;20090;-70
2023/10/11 06:44:45;;;;;;;9.10;3.70;;;20.30;75.70;;;;;;6278524;22;20054;-73
2023/10/11 06:47:16;;;;;;;9.95;4.30;;;20.20;75.60;;;;;;6307327;22;20054;-71
2023/10/11 06:49:44;;;;;;;8.68;4.00;;;20.20;75.60;;;;;;6277996;22;20122;-74
2023/10/11 06:52:19;;;;;;;12.00;3.88;;;20.30;75.70;;;;;;6279500;22;20015;-72
2023/10/11 06:54:49;;;;;;;12.85;4.63;;;20.30;75.80;;;;;;6279670;22;20023;-69
2023/10/11 06:57:21;;;;;;;8.35;4.00;;;20.30;76.20;;;;;;6305886;22;20020;-68
2023/10/11 06:59:49;;;;;;;7.72;4.32;;;20.30;75.70;;;;;;6307331;22;20007;-70
2023/10/11 07:02:18;;;;;;;;;;;20.40;75.80;;;;;;6254159;22;20023;-71
2023/10/11 07:04:50;;;;;;;7.97;4.22;;;20.30;75.80;;;;;;6279345;22;19950;-71
2023/10/11 07:07:19;;;;;;;10.75;4.20;;;20.30;75.70;;;;;;6307027;22;20015;-71
2023/10/11 07:09:56;;;;;;;10.95;4.30;;;20.40;75.80;;;;;;6279765;22;20030;-72
2023/10/11 07:12:28;;;;;;;8.60;4.33;;;20.40;75.80;;;;;;6305711;22;20498;-67
2023/10/11 07:14:57;;;;;;;9.50;4.80;;;20.30;75.60;;;;;;6307253;22;20015;-70
2023/10/11 07:17:32;;;;;;;11.02;4.68;;;20.40;75.80;;;;;;6306841;22;20015;-71
2023/10/11 07:19:57;;;;;;;10.35;5.00;;;20.40;75.80;;;;;;6279656;22;20019;-71
2023/10/11 07:22:26;;;;;;;10.52;4.35;;;20.40;75.80;;;;;;6276540;22;20022;-68
2023/10/11 07:25:18;;;;;;;12.07;4.60;;;20.40;75.80;;;;;;6278183;22;20026;-68
2023/10/11 07:27:43;;;;;;;11.60;4.53;;;20.40;75.90;;;;;;6306063;22;20031;-70
2023/10/11 07:30:16;;;;;;;11.30;4.85;;;20.40;75.90;;;;;;6305844;22;20019;-72
2023/10/11 07:32:43;;;;;;;10.07;4.70;;;20.40;76.00;;;;;;6277725;22;20047;-73
2023/10/11 07:35:18;;;;;;;10.18;4.60;;;20.40;76.00;;;;;;6305009;22;20019;-74
2023/10/11 07:37:44;;;;;;;9.10;4.97;;;20.40;76.00;;;;;;6306219;22;20327;-75
2023/10/11 07:40:17;;;;;;;10.75;4.57;;;20.40;76.00;;;;;;6279363;22;20102;-73
2023/10/11 07:42:44;;;;;;;12.10;5.30;;;20.40;76.00;;;;;;6308888;22;20019;-71
2023/10/11 07:45:12;;;;;;;12.93;5.32;;;20.40;76.00;;;;;;6308598;22;20019;-75
2023/10/11 07:47:52;;;;;;;17.73;5.90;;;20.40;76.00;;;;;;6280186;22;20026;-70
2023/10/11 07:50:24;;;;;;;10.40;5.28;;;20.40;76.00;;;;;;6308381;22;20478;-71
2023/10/11 07:52:50;;;;;;;12.48;5.55;;;20.40;75.90;;;;;;6308256;22;20027;-71
2023/10/11 07:55:17;;;;;;;11.38;4.97;;;20.40;75.90;;;;;;6308820;22;20015;-70
2023/10/11 07:57:46;;;;;;;14.85;5.22;;;20.40;76.00;;;;;;6308713;22;20019;-70
2023/10/11 08:00:17;;;;;;;12.27;5.20;;;20.40;76.00;;;;;;6279907;22;20019;-71
2023/10/11 08:02:56;;;;;;;15.35;6.10;;;20.40;76.00;;;;;;6308593;22;20027;-71
2023/10/11 08:05:25;;;;;;;13.55;5.68;;;20.40;75.90;;;;;;6281190;22;20042;-71
2023/10/11 08:07:52;;;;;;;14.27;6.38;;;20.40;76.00;;;;;;6280425;22;20034;-71
2023/10/11 08:10:29;;;;;;;12.80;5.13;;;20.40;75.90;;;;;;6281038;22;20050;-71
2023/10/11 08:12:57;;;;;;;13.00;5.68;;;20.40;75.90;;;;;;6281104;22;20030;-71
2023/10/11 08:15:25;;;;;;;12.05;5.60;;;20.40;76.00;;;;;;6307608;22;20022;-71
2023/10/11 08:17:53;;;;;;;10.45;5.78;;;20.40;76.20;;;;;;6308733;22;20494;-71
2023/10/11 08:20:19;;;;;;;11.05;5.80;;;20.40;76.00;;;;;;6308300;22;20023;-71
2023/10/11 08:22:47;;;;;;;10.70;5.25;;;20.40;75.90;;;;;;6307961;22;20096;-71
2023/10/11 08:25:25;;;;;;;13.95;6.20;;;20.40;76.00;;;;;;6280587;22;20030;-71
2023/10/11 08:27:57;;;;;;;9.40;5.70;;;20.40;75.90;;;;;;6280101;22;20030;-70
2023/10/11 08:30:23;;;;;;;12.15;5.18;;;20.40;75.90;;;;;;6280764;22;20045;-71
2023/10/11 08:32:49;;;;;;;13.38;5.75;;;20.40;75.90;;;;;;6308551;22;20015;-71
2023/10/11 08:35:31;;;;;;;14.43;5.85;;;20.40;75.90;;;;;;6279969;22;20086;-71
2023/10/11 08:38:02;;;;;;;12.07;5.72;;;20.40;76.00;;;;;;6308546;22;20019;-71
2023/10/11 08:40:35;;;;;;;10.75;6.13;;;20.40;76.00;;;;;;6280616;22;20402;-70
2023/10/11 08:43:02;;;;;;;10.13;5.43;;;20.40;76.00;;;;;;6307579;22;20026;-71
2023/10/11 08:45:33;;;;;;;11.48;5.78;;;20.40;75.90;;;;;;6280783;22;20023;-71
2023/10/11 08:48:06;;;;;;;16.58;6.20;;;20.40;76.00;;;;;;6308588;22;20019;-71
2023/10/11 08:50:35;;;;;;;11.55;6.05;;;20.40;76.00;;;;;;6279217;22;20011;-70
2023/10/11 08:53:07;;;;;;;10.57;5.75;;;20.40;75.90;;;;;;6281031;22;20022;-71
2023/10/11 08:55:37;;;;;;;11.48;5.25;;;20.40;75.90;;;;;;6256508;22;20454;-71
2023/10/11 08:58:04;;;;;;;12.55;6.15;;;20.40;75.90;;;;;;6307348;22;20378;-71
2023/10/11 09:00:33;;;;;;;13.13;6.13;;;20.40;75.90;;;;;;6307286;22;20345;-71
2023/10/11 09:03:19;;;;;;;12.13;6.15;;;20.40;75.90;;;;;;6308032;22;20019;-71
2023/10/11 09:05:47;;;;;;;12.77;6.05;;;20.40;75.90;;;;;;6281086;22;20019;-71
2023/10/11 09:08:26;;;;;;;11.70;6.17;;;20.40;75.90;;;;;;6307998;22;20470;-71
2023/10/11 09:10:51;;;;;;;11.10;5.93;;;20.40;75.90;;;;;;6280061;22;20011;-71
2023/10/11 09:13:26;;;;;;;12.82;6.47;;;20.40;75.90;;;;;;6280144;22;20027;-70
2023/10/11 09:15:54;;;;;;;13.70;6.70;;;20.40;76.00;;;;;;6308146;22;20047;-71
2023/10/11 09:18:20;;;;;;;13.85;7.00;;;20.40;75.90;;;;;;6306878;22;20065;-70
2023/10/11 09:21:08;;;;;;;13.43;7.35;;;20.40;75.80;;;;;;6280768;22;20019;-70
2023/10/11 09:23:37;;;;;;;13.68;6.90;;;20.40;75.70;;;;;;6280747;22;20039;-70
2023/10/11 09:26:05;;;;;;;16.27;7.22;;;20.40;75.60;;;;;;6279725;22;20057;-69
2023/10/11 09:28:34;;;;;;;15.30;7.82;;;20.40;75.70;;;;;;6280201;22;20019;-73
2023/10/11 09:31:10;;;;;;;17.08;7.28;;;20.40;75.70;;;;;;6308374;22;20012;-73
2023/10/11 09:33:40;;;;;;;14.70;7.47;;;20.40;75.80;;;;;;6308293;22;20020;-73
2023/10/11 09:36:07;;;;;;;16.42;7.68;;;20.40;75.80;;;;;;6280539;22;20022;-73
2023/10/11 09:38:42;;;;;;;14.70;7.03;;;20.40;75.80;;;;;;6306734;22;20100;-72
2023/10/11 09:41:08;;;;;;;15.60;7.35;;;20.40;75.90;;;;;;6307387;22;20007;-75
2023/10/11 09:43:44;;;;;;;15.13;7.20;;;20.40;76.00;;;;;;6307997;22;20090;-74
2023/10/11 09:46:13;;;;;;;18.67;7.53;;;20.40;75.90;;;;;;6279116;22;20388;-74
2023/10/11 09:48:42;;;;;;;13.95;6.95;;;20.40;76.00;;;;;;6307927;22;20498;-74
2023/10/11 09:51:08;;;;;;;12.05;7.28;;;20.40;76.00;;;;;;6280235;22;20029;-73
2023/10/11 09:53:41;;;;;;;13.07;7.28;;;20.40;76.00;;;;;;6279566;22;20086;-74
2023/10/11 09:56:29;;;;;;;15.70;7.40;;;20.40;76.00;;;;;;6281561;22;20042;-72
2023/10/11 09:58:58;;;;;;;13.10;7.30;;;20.40;76.00;;;;;;6259350;22;20023;-72
2023/10/11 10:01:32;;;;;;;14.13;7.07;;;20.40;76.10;;;;;;6306174;22;20090;-72
2023/10/11 10:04:04;;;;;;;12.45;6.72;;;20.50;76.10;;;;;;6255687;22;20026;-72
2023/10/11 10:06:30;;;;;;;13.07;7.32;;;20.50;76.10;;;;;;6254726;22;20015;-71
2023/10/11 10:09:16;;;;;;;11.13;7.03;;;20.40;76.00;;;;;;6307153;22;20068;-71
2023/10/11 10:12:05;;;;;;;15.73;7.18;;;20.50;76.10;;;;;;6307413;22;20019;-71
2023/10/11 10:14:33;;;;;;;13.93;7.55;;;20.50;76.40;;;;;;6278765;22;20023;-71
2023/10/11 10:17:26;;;;;;;13.70;7.05;;;20.40;76.40;;;;;;6307588;22;20019;-71
2023/10/11 10:19:52;;;;;;;13.25;7.10;;;20.50;76.70;;;;;;6274739;22;20019;-72
2023/10/11 10:22:22;;;;;;;11.98;7.22;;;20.50;76.70;;;;;;6278546;22;20336;-73
2023/10/11 10:24:54;;;;;;;16.15;7.60;;;20.50;76.80;;;;;;6279906;22;20015;-73
2023/10/11 10:27:34;;;;;;;14.40;7.43;;;20.50;76.70;;;;;;6255569;22;20019;-75
2023/10/11 10:30:05;;;;;;;15.13;7.43;;;20.50;76.70;;;;;;6307108;22;20019;-73
2023/10/11 10:32:30;;;;;;;16.58;7.32;;;20.50;76.70;;;;;;6279535;22;20356;-72
2023/10/11 10:35:18;;;;;;;15.32;7.03;;;20.50;76.70;;;;;;6253123;22;20017;-73
2023/10/11 10:37:49;;;;;;;14.73;7.43;;;20.50;76.60;;;;;;6279445;22;20020;-74
2023/10/11 10:40:27;;;;;;;12.27;7.28;;;20.50;76.60;;;;;;6305687;22;20018;-74
2023/10/11 10:43:20;;;;;;;15.40;7.43;;;20.50;76.60;;;;;;6305743;22;20086;-74
2023/10/11 10:45:49;;;;;;;13.48;7.22;;;20.50;76.60;;;;;;6279018;22;20027;-72
2023/10/11 10:48:16;;;;;;;13.70;7.50;;;20.50;76.60;;;;;;6279126;22;20015;-66
2023/10/11 10:51:03;;;;;;;11.40;6.72;;;20.50;76.70;;;;;;6305695;22;20450;-72
2023/10/11 10:53:43;;;;;;;16.05;7.60;;;20.50;76.90;;;;;;6278302;22;20446;-72
2023/10/11 10:56:24;;;;;;;12.77;7.32;;;20.60;76.90;;;;;;6305040;22;20026;-73
2023/10/11 10:59:13;;;;;;;16.25;7.65;;;20.60;77.00;;;;;;6278684;22;20025;-72
2023/10/11 11:01:44;;;;;;;12.85;7.75;;;20.60;77.00;;;;;;6279098;22;20015;-77
2023/10/11 11:04:10;;;;;;;15.10;7.43;;;20.60;76.90;;;;;;6277796;22;20351;-75
2023/10/11 11:06:46;;;;;;;14.30;7.55;;;20.60;76.90;;;;;;6279751;22;20039;-77
2023/10/11 11:09:18;;;;;;;15.85;7.68;;;20.70;76.90;;;;;;6306962;22;20050;-74
2023/10/11 11:11:44;;;;;;;12.48;6.93;;;20.70;76.90;;;;;;6278535;22;20048;-74
2023/10/11 11:14:10;;;;;;;12.80;7.30;;;20.70;76.80;;;;;;6302503;22;20082;-74
2023/10/11 11:16:39;;;;;;;15.13;7.20;;;20.70;76.90;;;;;;6306726;22;20015;-74
2023/10/11 11:19:16;;;;;;;19.33;8.05;;;20.70;76.90;;;;;;6279107;22;20073;-72
2023/10/11 11:21:47;;;;;;;16.63;7.50;;;20.70;77.00;;;;;;6279497;22;20019;-72
2023/10/11 11:24:38;;;;;;;14.52;7.57;;;20.70;77.00;;;;;;6253554;22;20455;-73
2023/10/11 11:27:15;;;;;;;14.93;7.35;;;20.70;77.10;;;;;;6306312;22;20458;-73
2023/10/11 11:29:40;;;;;;;13.85;7.30;;;20.70;77.10;;;;;;6279199;22;20015;-71
2023/10/11 11:32:15;;;;;;;11.82;7.03;;;20.70;77.10;;;;;;6306243;22;20068;-75
2023/10/11 11:35:09;;;;;;;14.88;7.60;;;20.80;77.20;;;;;;6279235;22;20046;-72
2023/10/11 11:37:38;;;;;;;12.40;7.32;;;20.80;77.20;;;;;;6305995;22;20019;-71
2023/10/11 11:40:24;;;;;;;14.25;7.78;;;20.80;77.20;;;;;;6277970;22;20012;-71
2023/10/11 11:42:49;;;;;;;17.88;7.35;;;20.80;77.20;;;;;;6278577;22;20026;-72
2023/10/11 11:45:19;;;;;;;13.05;7.53;;;20.80;77.30;;;;;;6277279;22;20019;-70
2023/10/11 11:47:55;;;;;;;13.73;6.80;;;20.90;77.30;;;;;;6306124;22;20026;-70
2023/10/11 11:50:31;;;;;;;13.35;7.35;;;20.90;77.30;;;;;;6278623;22;20030;-70
2023/10/11 11:52:57;;;;;;;13.45;7.07;;;20.80;77.30;;;;;;6305738;22;20428;-68
2023/10/11 11:55:23;;;;;;;13.63;7.03;;;20.90;77.30;;;;;;6306560;22;20065;-68
2023/10/11 11:57:52;;;;;;;14.68;7.40;;;20.90;77.30;;;;;;6306800;22;20019;-67
2023/10/11 12:02:51;;;;;;;13.65;6.85;;;20.90;77.40;;;;;;6280887;22;20030;-71
2023/10/11 12:05:17;;;;;;;11.63;6.78;;;20.90;77.40;;;;;;6277469;22;20124;-71
2023/10/11 12:07:43;;;;;;;13.65;6.90;;;20.90;77.40;;;;;;6278351;22;20049;-70
2023/10/11 12:10:23;;;;;;;12.85;7.50;;;20.90;77.40;;;;;;6278007;22;20452;-66
2023/10/11 12:12:52;;;;;;;12.93;6.82;;;20.90;77.40;;;;;;6306726;22;20034;-71
2023/10/11 12:15:18;;;;;;;15.40;7.30;;;20.90;77.40;;;;;;6278724;22;20455;-73
2023/10/11 12:17:45;;;;;;;13.13;7.40;;;20.90;77.40;;;;;;6279403;22;20037;-72
2023/10/11 12:20:12;;;;;;;16.10;7.22;;;20.90;77.50;;;;;;6277945;22;20038;-71
2023/10/11 12:22:42;;;;;;;16.38;7.07;;;20.90;77.50;;;;;;6306230;22;20015;-71
2023/10/11 12:25:12;;;;;;;13.48;6.97;;;20.90;77.50;;;;;;6278396;22;20065;-71
2023/10/11 12:27:40;;;;;;;13.23;6.97;;;20.90;77.60;;;;;;6279762;22;20019;-70
2023/10/11 12:30:10;;;;;;;12.98;6.78;;;20.90;77.60;;;;;;6308365;22;20116;-72
2023/10/11 12:32:36;;;;;;;12.40;7.10;;;20.90;77.60;;;;;;6280701;22;20007;-72
2023/10/11 12:35:07;;;;;;;11.35;6.68;;;21.00;77.70;;;;;;6307471;22;20019;-73
2023/10/11 12:37:33;;;;;;;16.90;7.10;;;20.90;77.60;;;;;;6280781;22;20107;-72
2023/10/11 12:39:59;;;;;;;14.48;6.15;;;21.00;77.70;;;;;;6280941;22;20039;-72
2023/10/11 12:42:24;;;;;;;14.35;7.03;;;20.90;77.60;;;;;;6306877;22;20019;-72
2023/10/11 12:44:51;;;;;;;13.02;6.65;;;21.00;77.60;;;;;;6308411;22;20016;-72
2023/10/11 12:47:19;;;;;;;12.88;7.07;;;21.00;77.70;;;;;;6307947;22;20016;-73
2023/10/11 12:49:45;;;;;;;12.85;6.13;;;21.00;77.60;;;;;;6307339;22;20023;-73
2023/10/11 12:52:17;;;;;;;12.45;6.40;;;21.00;77.60;;;;;;6279880;22;20015;-73
2023/10/11 12:54:43;;;;;;;14.02;6.53;;;21.00;77.60;;;;;;6308197;22;20093;-67
2023/10/11 12:57:08;;;;;;;12.25;6.85;;;21.00;77.60;;;;;;6279311;22;20046;-76
2023/10/11 12:59:35;;;;;;;11.43;6.68;;;21.00;77.60;;;;;;6308272;22;20069;-72
2023/10/11 13:02:03;;;;;;;9.65;6.50;;;21.10;77.70;;;;;;6280669;22;20017;-72
2023/10/11 13:04:36;;;;;;;10.38;6.10;;;21.10;77.70;;;;;;6278936;22;20015;-72
2023/10/11 13:07:06;;;;;;;11.00;6.13;;;21.10;77.70;;;;;;6280654;22;20133;-75
2023/10/11 13:09:35;;;;;;;11.77;6.38;;;21.10;77.70;;;;;;6279485;22;20022;-73
2023/10/11 13:12:03;;;;;;;12.80;6.38;;;21.10;77.60;;;;;;6308239;22;20047;-72
2023/10/11 13:14:29;;;;;;;13.45;6.20;;;21.10;77.60;;;;;;6307693;22;20066;-76
2023/10/11 13:16:55;;;;;;;9.80;6.25;;;21.10;77.60;;;;;;6307378;22;20379;-73
2023/10/11 13:19:24;;;;;;;11.82;6.22;;;21.10;77.60;;;;;;6307899;22;20019;-69
2023/10/11 13:21:53;;;;;;;11.48;6.20;;;21.10;77.60;;;;;;6280841;22;20069;-76
2023/10/11 13:24:23;;;;;;;10.98;6.60;;;21.10;77.50;;;;;;6279065;22;20028;-74
2023/10/11 13:26:57;;;;;;;11.90;6.93;;;21.10;77.50;;;;;;6278109;22;20026;-71
2023/10/11 13:29:23;;;;;;;13.38;6.40;;;21.10;77.60;;;;;;6279972;22;20019;-72
2023/10/11 13:31:49;;;;;;;15.00;6.57;;;21.10;77.60;;;;;;6279227;22;20030;-75
2023/10/11 13:34:14;;;;;;;12.43;6.60;;;21.10;77.60;;;;;;6306530;22;20090;-76
2023/10/11 13:36:43;;;;;;;12.73;6.35;;;21.10;77.70;;;;;;6279971;22;20035;-73
2023/10/11 13:39:25;;;;;;;13.20;6.35;;;21.10;77.70;;;;;;6279658;22;20022;-74
2023/10/11 13:42:04;;;;;;;16.33;6.68;;;21.10;77.70;;;;;;6280284;22;20007;-71
2023/10/11 13:44:31;;;;;;;12.88;6.32;;;21.10;77.80;;;;;;6278589;22;20015;-72